Time;durP1;ratioP1;P1;durP2;ratioP2;P2;SDS_P1;SDS_P2;PMS_P1;PMS_P2;Temp;Humidity;BMP_temperature;BMP_pressure;BME280_temperature;BME280_humidity;BME280_pressure;Samples;Min_cycle;Max_cycle;Signal;HPM_P1;HPM_P2
2021/01/28 00:00:32;;;;;;;36.33;16.47;;;4.50;92.70;;;;;;5048481;28;20041;-71
2021/01/28 00:02:58;;;;;;;34.30;15.97;;;4.60;92.70;;;;;;5050847;28;20045;-71
2021/01/28 00:05:27;;;;;;;36.47;16.30;;;4.60;92.60;;;;;;5050591;28;20110;-71
2021/01/28 00:07:53;;;;;;;35.47;16.80;;;4.60;92.70;;;;;;5050944;28;20041;-71
2021/01/28 00:10:19;;;;;;;34.27;16.50;;;4.60;92.70;;;;;;5050188;28;20397;-71
2021/01/28 00:12:46;;;;;;;35.93;16.80;;;4.60;92.70;;;;;;5050769;28;20051;-71
2021/01/28 00:15:13;;;;;;;35.93;16.20;;;4.60;92.70;;;;;;5050849;28;20067;-71
2021/01/28 00:17:38;;;;;;;34.47;15.93;;;4.60;92.80;;;;;;5049097;28;20048;-71
2021/01/28 00:20:26;;;;;;;35.20;15.53;;;4.60;92.80;;;;;;5050790;28;20033;-71
2021/01/28 00:22:51;;;;;;;34.13;16.00;;;4.60;92.90;;;;;;5050381;28;20502;-71
2021/01/28 00:25:19;;;;;;;32.80;15.00;;;4.70;92.90;;;;;;5050784;28;20059;-71
2021/01/28 00:27:45;;;;;;;39.03;16.97;;;4.70;92.90;;;;;;5050358;28;20176;-71
2021/01/28 00:30:15;;;;;;;35.53;16.50;;;4.70;92.90;;;;;;5050616;28;20052;-71
2021/01/28 00:32:41;;;;;;;37.60;17.57;;;4.70;92.90;;;;;;5050182;28;20031;-71
2021/01/28 00:35:08;;;;;;;41.70;16.47;;;4.80;92.90;;;;;;5050560;28;20401;-71
2021/01/28 00:37:34;;;;;;;38.27;17.10;;;4.80;92.90;;;;;;5050772;28;20053;-71
2021/01/28 00:40:00;;;;;;;39.93;16.73;;;4.80;92.90;;;;;;5050132;28;20041;-71
2021/01/28 00:42:26;;;;;;;36.43;16.03;;;4.80;93.00;;;;;;5050414;28;20515;-71
2021/01/28 00:44:52;;;;;;;34.80;16.00;;;4.80;92.90;;;;;;5050213;28;20390;-71
2021/01/28 00:47:18;;;;;;;38.70;16.97;;;4.80;92.90;;;;;;5050641;28;20037;-71
2021/01/28 00:49:44;;;;;;;35.73;16.43;;;4.80;93.00;;;;;;5050621;28;20604;-71
2021/01/28 00:52:10;;;;;;;36.50;16.17;;;4.80;93.00;;;;;;5048312;28;20037;-71
2021/01/28 00:54:35;;;;;;;33.23;15.37;;;4.80;93.00;;;;;;5032743;28;20516;-71
2021/01/28 00:57:01;;;;;;;37.77;16.67;;;4.80;93.00;;;;;;5049394;28;20041;-71
2021/01/28 00:59:27;;;;;;;35.10;15.10;;;4.90;93.10;;;;;;5048557;28;20025;-71
2021/01/28 01:01:53;;;;;;;35.17;14.63;;;4.80;93.00;;;;;;5048987;28;20462;-71
2021/01/28 01:04:19;;;;;;;30.87;14.37;;;4.90;93.10;;;;;;5032063;28;20112;-71
2021/01/28 01:06:44;;;;;;;30.10;14.00;;;4.90;93.10;;;;;;5049177;28;20037;-71
2021/01/28 01:09:10;;;;;;;30.40;14.50;;;4.90;93.10;;;;;;5050397;28;20048;-71
2021/01/28 01:11:47;;;;;;;32.13;14.20;;;4.90;93.10;;;;;;5049265;28;20052;-71
2021/01/28 01:14:12;;;;;;;27.73;13.57;;;4.90;93.10;;;;;;5053950;28;20404;-71
2021/01/28 01:16:38;;;;;;;29.80;14.53;;;4.90;93.10;;;;;;5052266;28;20106;-71
2021/01/28 01:19:09;;;;;;;29.38;14.38;;;4.90;93.10;;;;;;5052679;28;20396;-72
2021/01/28 01:21:48;;;;;;;30.50;13.53;;;4.90;93.10;;;;;;5052045;28;20401;-72
2021/01/28 01:24:19;;;;;;;;;;;4.90;93.10;;;;;;5053080;28;20639;-72
2021/01/28 01:26:45;;;;;;;28.10;13.77;;;4.90;93.10;;;;;;5053457;28;19916;-70
2021/01/28 01:29:12;;;;;;;27.13;13.43;;;4.90;93.10;;;;;;5052246;28;20132;-71
2021/01/28 01:32:02;;;;;;;30.53;13.87;;;4.80;93.00;;;;;;5051686;28;20478;-71
2021/01/28 01:34:34;;;;;;;29.03;12.13;;;4.90;93.00;;;;;;5052336;28;20040;-71
2021/01/28 01:37:05;;;;;;;27.05;13.15;;;4.80;93.00;;;;;;5051925;28;20118;-71
2021/01/28 01:39:31;;;;;;;23.23;11.67;;;4.80;93.00;;;;;;5052119;28;20519;-71
2021/01/28 01:41:58;;;;;;;25.73;12.87;;;4.80;93.10;;;;;;5035043;28;20033;-71
2021/01/28 01:44:26;;;;;;;23.37;12.23;;;4.70;93.10;;;;;;5035848;28;20061;-72
2021/01/28 01:47:17;;;;;;;29.30;13.07;;;4.70;93.00;;;;;;5051757;28;20497;-72
2021/01/28 01:49:45;;;;;;;23.93;11.67;;;4.70;93.10;;;;;;5053377;28;20025;-71
2021/01/28 01:52:12;;;;;;;25.77;11.53;;;4.70;93.10;;;;;;5052580;28;20041;-72
2021/01/28 01:54:46;;;;;;;24.27;11.73;;;4.70;93.10;;;;;;5053407;28;20029;-71
2021/01/28 01:57:24;;;;;;;27.40;12.27;;;4.70;93.00;;;;;;5051946;28;20037;-71
2021/01/28 02:00:06;;;;;;;24.83;12.07;;;4.60;93.00;;;;;;5051470;28;20033;-71
2021/01/28 02:02:48;;;;;;;26.43;12.17;;;4.60;92.90;;;;;;5052627;28;20048;-71
2021/01/28 02:05:35;;;;;;;27.70;12.10;;;4.60;93.00;;;;;;5052985;28;20031;-71
2021/01/28 02:08:20;;;;;;;27.87;12.40;;;4.60;93.00;;;;;;5052386;28;20057;-72
2021/01/28 02:11:09;;;;;;;27.30;11.63;;;4.50;92.90;;;;;;5052757;28;20037;-71
2021/01/28 02:14:01;;;;;;;24.70;11.20;;;4.50;92.90;;;;;;5046884;28;20076;-71
2021/01/28 02:16:55;;;;;;;23.40;10.17;;;4.40;92.80;;;;;;5051252;28;20037;-71
2021/01/28 02:20:32;;;;;;;22.23;10.03;;;4.40;92.70;;;;;;5010179;28;20104;-71
2021/01/28 02:23:17;;;;;;;25.10;10.93;;;4.30;92.70;;;;;;5009866;28;20080;-71
2021/01/28 02:25:48;;;;;;;23.77;10.73;;;4.20;92.80;;;;;;5044367;28;20175;-71
2021/01/28 02:28:16;;;;;;;25.20;10.83;;;4.20;92.80;;;;;;5051219;28;20045;-71
2021/01/28 02:30:55;;;;;;;21.70;9.80;;;4.20;92.70;;;;;;5052307;28;20045;-72
2021/01/28 02:33:47;;;;;;;27.57;11.73;;;4.10;92.40;;;;;;5052079;28;20040;-71
2021/01/28 02:36:39;;;;;;;23.33;10.40;;;4.00;92.10;;;;;;5050747;28;20060;-71
2021/01/28 02:39:28;;;;;;;25.23;11.03;;;3.80;91.70;;;;;;5050871;28;20044;-71
2021/01/28 02:42:13;;;;;;;26.23;10.70;;;3.60;91.50;;;;;;5034590;28;20052;-70
2021/01/28 02:44:40;;;;;;;29.43;11.37;;;3.40;91.60;;;;;;5050641;28;20033;-72
2021/01/28 02:47:29;;;;;;;28.30;10.63;;;3.20;91.60;;;;;;5051597;28;20044;-71
2021/01/28 02:50:23;;;;;;;27.10;10.77;;;3.00;91.60;;;;;;5050785;28;20040;-71
2021/01/28 02:52:58;;;;;;;44.70;14.20;;;2.80;91.70;;;;;;5050071;28;20029;-71
2021/01/28 02:55:28;;;;;;;36.37;11.87;;;2.70;91.80;;;;;;5050845;28;20056;-72
2021/01/28 02:57:55;;;;;;;40.57;13.10;;;2.60;92.20;;;;;;5050657;28;20029;-72
2021/01/28 03:00:30;;;;;;;34.97;12.00;;;2.50;92.50;;;;;;5050580;28;20397;-71
2021/01/28 03:02:56;;;;;;;32.37;11.90;;;2.60;92.80;;;;;;5051390;28;20048;-71
2021/01/28 03:05:38;;;;;;;37.20;12.87;;;2.60;92.80;;;;;;5050640;28;20112;-71
2021/01/28 03:08:04;;;;;;;42.93;15.43;;;2.70;92.80;;;;;;5050130;28;20135;-71
2021/01/28 03:10:30;;;;;;;37.07;13.20;;;2.70;92.80;;;;;;5050305;28;20029;-71
2021/01/28 03:13:00;;;;;;;35.53;13.15;;;2.80;93.00;;;;;;5049896;28;20033;-71
2021/01/28 03:15:43;;;;;;;34.43;12.70;;;2.80;92.90;;;;;;5050456;28;20065;-71
2021/01/28 03:18:09;;;;;;;33.30;11.97;;;2.90;93.10;;;;;;5049806;28;20059;-71
2021/01/28 03:20:37;;;;;;;29.33;12.30;;;2.90;93.10;;;;;;5050122;28;20033;-71
2021/01/28 03:23:06;;;;;;;28.10;11.80;;;3.00;93.10;;;;;;5049767;28;20044;-70
2021/01/28 03:25:54;;;;;;;27.70;10.73;;;3.00;92.90;;;;;;5050309;28;20125;-71
2021/01/28 03:28:21;;;;;;;26.80;10.80;;;3.10;92.90;;;;;;5049661;28;20083;-72
2021/01/28 03:30:51;;;;;;;22.60;9.27;;;3.10;92.90;;;;;;5049887;28;20037;-72
2021/01/28 03:33:19;;;;;;;25.70;10.40;;;3.10;93.00;;;;;;5049635;28;20037;-72
2021/01/28 03:35:46;;;;;;;24.20;9.20;;;3.10;93.00;;;;;;5051355;28;20044;-71
2021/01/28 03:38:15;;;;;;;20.40;8.47;;;3.10;93.00;;;;;;5049657;28;20055;-71
2021/01/28 03:40:42;;;;;;;22.57;8.53;;;3.20;93.00;;;;;;5049519;28;20033;-71
2021/01/28 03:43:08;;;;;;;20.27;8.57;;;3.20;92.90;;;;;;5049938;28;20049;-71
2021/01/28 03:45:35;;;;;;;17.63;8.13;;;3.20;92.90;;;;;;5033006;28;20045;-71
2021/01/28 03:48:02;;;;;;;19.50;8.03;;;3.20;92.90;;;;;;5051140;28;20045;-71
2021/01/28 03:50:57;;;;;;;20.33;8.20;;;3.20;92.90;;;;;;4996199;28;20061;-71
2021/01/28 03:53:35;;;;;;;20.80;7.87;;;3.30;93.00;;;;;;5051042;28;20036;-71
2021/01/28 03:56:05;;;;;;;20.67;8.10;;;3.30;93.00;;;;;;5050808;28;20033;-71
2021/01/28 03:58:33;;;;;;;17.03;7.67;;;3.30;93.00;;;;;;5049691;28;20302;-71
2021/01/28 04:01:17;;;;;;;16.53;7.40;;;3.30;93.00;;;;;;5050748;28;20044;-71
2021/01/28 04:03:44;;;;;;;20.60;8.40;;;3.30;92.80;;;;;;5049592;28;20076;-71
2021/01/28 04:06:33;;;;;;;20.83;7.73;;;3.30;92.90;;;;;;5022158;28;20163;-71
2021/01/28 04:09:11;;;;;;;17.87;7.43;;;3.30;93.00;;;;;;5049455;28;20567;-71
2021/01/28 04:11:49;;;;;;;17.17;7.03;;;3.30;93.00;;;;;;5049229;28;20041;-71
2021/01/28 04:14:35;;;;;;;17.57;7.50;;;3.30;93.00;;;;;;5049136;28;20086;-71
2021/01/28 04:17:02;;;;;;;18.60;7.80;;;3.30;93.00;;;;;;5049556;28;20079;-71
2021/01/28 04:19:28;;;;;;;18.03;7.50;;;3.30;93.00;;;;;;5049147;28;20235;-70
2021/01/28 04:21:54;;;;;;;19.10;8.30;;;3.40;93.00;;;;;;5049249;28;20138;-71
2021/01/28 04:24:20;;;;;;;16.70;7.27;;;3.40;93.00;;;;;;5050723;28;20086;-72
2021/01/28 04:26:50;;;;;;;17.60;7.60;;;3.40;93.00;;;;;;5049019;28;20036;-71
2021/01/28 04:29:20;;;;;;;17.83;7.80;;;3.40;93.00;;;;;;5049469;28;20041;-71
2021/01/28 04:32:16;;;;;;;17.23;7.27;;;3.40;93.00;;;;;;5033234;28;20131;-70
2021/01/28 04:35:02;;;;;;;19.43;7.70;;;3.40;93.00;;;;;;5050496;28;20052;-72
2021/01/28 04:37:28;;;;;;;16.67;6.90;;;3.40;92.80;;;;;;5049002;28;20064;-71
2021/01/28 04:40:11;;;;;;;16.87;7.03;;;3.50;92.90;;;;;;5049299;28;20583;-71
2021/01/28 04:42:42;;;;;;;17.97;7.60;;;3.40;92.80;;;;;;5032408;28;20111;-71
2021/01/28 04:45:11;;;;;;;15.23;6.60;;;3.40;92.80;;;;;;5049457;28;20063;-71
2021/01/28 04:47:45;;;;;;;14.73;7.07;;;3.40;92.80;;;;;;5050793;28;20033;-71
2021/01/28 04:50:34;;;;;;;16.37;7.43;;;3.40;92.70;;;;;;5054073;28;20134;-70
2021/01/28 04:53:32;;;;;;;14.70;6.10;;;3.30;92.60;;;;;;5053009;28;20036;-71
2021/01/28 04:56:18;;;;;;;16.43;6.77;;;3.20;92.40;;;;;;5053096;28;20087;-71
2021/01/28 04:59:21;;;;;;;14.57;5.97;;;3.10;92.20;;;;;;5038806;28;20107;-71
2021/01/28 05:01:47;;;;;;;15.47;6.53;;;2.90;92.20;;;;;;5052265;28;20033;-71
2021/01/28 05:04:40;;;;;;;16.83;7.10;;;2.80;92.00;;;;;;5013214;28;20055;-71
2021/01/28 05:07:26;;;;;;;17.63;6.80;;;2.60;91.70;;;;;;5052457;28;20036;-71
2021/01/28 05:10:14;;;;;;;;;;;2.40;91.60;;;;;;5054179;28;20090;-71
2021/01/28 05:13:01;;;;;;;15.47;6.77;;;2.30;91.70;;;;;;5054044;28;19965;-71
2021/01/28 05:15:47;;;;;;;16.00;6.50;;;2.10;91.70;;;;;;5053674;28;20029;-71
2021/01/28 05:18:37;;;;;;;17.47;6.83;;;2.00;91.80;;;;;;5052200;28;20125;-71
2021/01/28 05:21:26;;;;;;;17.80;6.77;;;1.90;92.00;;;;;;5012531;28;20040;-71
2021/01/28 05:24:34;;;;;;;20.30;7.70;;;1.80;92.20;;;;;;5035158;28;20033;-71
2021/01/28 05:27:28;;;;;;;18.40;7.10;;;1.80;92.40;;;;;;5052718;28;20055;-71
2021/01/28 05:29:57;;;;;;;19.47;7.00;;;1.80;92.50;;;;;;5053167;28;20029;-71
2021/01/28 05:32:42;;;;;;;19.40;7.03;;;1.80;92.60;;;;;;5053558;28;20397;-71
2021/01/28 05:35:44;;;;;;;21.23;8.17;;;1.80;92.80;;;;;;5040486;28;20039;-71
2021/01/28 05:38:21;;;;;;;18.23;7.23;;;1.90;92.80;;;;;;5052405;28;20111;-71
2021/01/28 05:41:42;;;;;;;19.27;7.70;;;2.00;92.90;;;;;;5049888;28;20036;-71
2021/01/28 05:46:38;;;;;;;16.90;7.20;;;2.10;92.90;;;;;;4993514;28;20125;-71
2021/01/28 05:49:21;;;;;;;17.40;7.13;;;2.10;92.80;;;;;;5013135;28;20133;-71
2021/01/28 05:51:51;;;;;;;16.70;7.17;;;2.20;92.80;;;;;;5013480;28;20042;-72
2021/01/28 05:54:35;;;;;;;17.27;7.00;;;2.20;92.80;;;;;;4995660;28;20041;-71
2021/01/28 05:57:52;;;;;;;16.07;7.33;;;2.20;92.70;;;;;;5011865;28;20100;-72
2021/01/28 06:00:53;;;;;;;19.17;7.80;;;2.20;92.70;;;;;;4994841;28;20045;-69
2021/01/28 06:03:56;;;;;;;16.83;7.53;;;2.20;92.50;;;;;;4995848;28;20034;-71
2021/01/28 06:07:31;;;;;;;16.77;6.90;;;2.10;92.50;;;;;;4968975;28;20041;-72
2021/01/28 06:10:26;;;;;;;17.40;7.50;;;2.10;92.20;;;;;;5011920;28;20044;-71
2021/01/28 06:13:52;;;;;;;15.93;7.27;;;2.00;92.20;;;;;;5013013;28;20048;-72
2021/01/28 06:17:23;;;;;;;18.40;7.80;;;1.90;92.20;;;;;;4987420;28;20128;-71
2021/01/28 06:20:21;;;;;;;19.63;7.53;;;1.80;92.10;;;;;;5011896;28;20445;-71
2021/01/28 06:23:27;;;;;;;19.73;7.03;;;1.70;92.00;;;;;;5012946;28;20065;-71
2021/01/28 06:26:16;;;;;;;19.40;7.77;;;1.60;92.10;;;;;;5011412;28;20087;-71
2021/01/28 06:29:03;;;;;;;16.90;7.80;;;1.50;92.10;;;;;;4994874;28;20048;-71
2021/01/28 06:32:00;;;;;;;22.17;9.43;;;1.40;92.20;;;;;;5012600;28;20030;-71
2021/01/28 06:35:12;;;;;;;21.13;9.10;;;1.40;92.40;;;;;;5012250;28;20441;-71
2021/01/28 06:38:22;;;;;;;22.90;8.73;;;1.40;92.50;;;;;;4981738;28;20121;-71
2021/01/28 06:41:19;;;;;;;21.33;9.27;;;1.40;92.40;;;;;;4997748;28;20574;-72
2021/01/28 06:44:25;;;;;;;22.17;8.23;;;1.40;92.40;;;;;;5012170;28;20165;-70
2021/01/28 06:47:45;;;;;;;23.07;9.43;;;1.30;92.40;;;;;;4994771;28;20041;-71
2021/01/28 06:50:39;;;;;;;21.63;9.00;;;1.30;92.30;;;;;;4988120;28;20056;-71
2021/01/28 06:53:11;;;;;;;21.13;8.17;;;1.20;92.60;;;;;;4994337;28;20034;-69
2021/01/28 06:56:12;;;;;;;22.75;8.75;;;1.20;92.40;;;;;;5012357;28;20536;-71
2021/01/28 06:59:05;;;;;;;20.93;8.53;;;1.20;92.40;;;;;;4994193;28;20106;-72
2021/01/28 07:02:01;;;;;;;21.43;8.20;;;1.20;92.40;;;;;;4994686;28;20486;-71
2021/01/28 07:05:34;;;;;;;20.40;8.90;;;1.10;92.50;;;;;;4986278;28;20053;-71
2021/01/28 07:08:18;;;;;;;20.53;8.60;;;1.20;92.60;;;;;;4994426;28;20042;-72
2021/01/28 07:11:00;;;;;;;22.13;8.98;;;1.20;92.70;;;;;;4992990;28;20483;-71
2021/01/28 07:13:39;;;;;;;20.17;7.73;;;1.20;92.70;;;;;;4981877;28;20034;-71
2021/01/28 07:16:39;;;;;;;20.57;8.27;;;1.20;92.70;;;;;;5010510;28;20057;-71
2021/01/28 07:19:17;;;;;;;18.33;8.10;;;1.20;92.70;;;;;;5012033;28;20038;-71
2021/01/28 07:21:51;;;;;;;23.57;8.67;;;1.20;92.70;;;;;;5011379;28;20045;-71
2021/01/28 07:24:28;;;;;;;20.23;7.83;;;1.30;92.70;;;;;;4994372;28;20049;-72
2021/01/28 07:27:14;;;;;;;21.90;8.50;;;1.30;92.80;;;;;;4994536;28;20490;-71
2021/01/28 07:29:45;;;;;;;20.97;9.13;;;1.30;92.80;;;;;;4994242;28;20122;-71
2021/01/28 07:32:33;;;;;;;20.93;9.67;;;1.30;92.80;;;;;;4993904;28;20104;-72
2021/01/28 07:35:32;;;;;;;17.77;8.27;;;1.30;92.80;;;;;;4980655;28;20088;-71
2021/01/28 07:38:27;;;;;;;20.97;8.67;;;1.40;92.80;;;;;;4993347;28;20045;-71
2021/01/28 07:41:14;;;;;;;23.53;11.00;;;1.40;92.80;;;;;;5011178;28;20041;-72
2021/01/28 07:44:25;;;;;;;22.10;10.53;;;1.40;92.70;;;;;;4969968;28;20045;-72
2021/01/28 07:46:55;;;;;;;24.35;11.45;;;1.40;92.80;;;;;;4993665;28;20421;-72
2021/01/28 07:49:26;;;;;;;24.00;11.70;;;1.40;92.80;;;;;;4992633;28;20037;-72
2021/01/28 07:52:15;;;;;;;23.75;11.25;;;1.40;92.80;;;;;;4990805;28;20038;-71
2021/01/28 07:54:55;;;;;;;20.63;10.30;;;1.40;93.10;;;;;;4985017;28;20113;-71
2021/01/28 07:57:29;;;;;;;23.70;11.67;;;1.40;92.90;;;;;;5010860;28;20461;-72
2021/01/28 08:00:04;;;;;;;19.87;9.87;;;1.50;93.00;;;;;;5007905;28;20030;-71
2021/01/28 08:02:39;;;;;;;20.10;9.80;;;1.50;92.90;;;;;;5002977;28;20513;-72
2021/01/28 08:05:04;;;;;;;19.33;9.70;;;1.50;93.00;;;;;;4999976;28;20376;-71
2021/01/28 08:07:39;;;;;;;18.30;8.37;;;1.60;92.90;;;;;;4981277;28;20079;-72
2021/01/28 08:10:23;;;;;;;15.80;8.23;;;1.60;93.00;;;;;;5008261;28;20041;-71
2021/01/28 08:13:19;;;;;;;16.37;8.73;;;1.60;93.10;;;;;;4999483;28;20031;-71
2021/01/28 08:15:48;;;;;;;15.40;8.30;;;1.70;93.10;;;;;;5010132;28;20117;-72
2021/01/28 08:18:45;;;;;;;13.87;7.30;;;1.70;93.10;;;;;;5010514;28;20390;-71
2021/01/28 08:21:20;;;;;;;15.90;8.10;;;1.80;93.10;;;;;;5008726;28;20073;-72
2021/01/28 08:23:47;;;;;;;14.17;7.43;;;1.90;93.40;;;;;;5010904;28;20030;-70
2021/01/28 08:26:23;;;;;;;12.90;6.97;;;2.00;93.10;;;;;;5008916;28;20033;-71
2021/01/28 08:29:14;;;;;;;13.50;7.23;;;2.00;92.90;;;;;;4996891;28;20046;-72
2021/01/28 08:31:44;;;;;;;14.55;7.75;;;2.00;92.80;;;;;;5004710;28;20034;-72
2021/01/28 08:34:16;;;;;;;12.70;6.53;;;2.10;93.10;;;;;;4996943;28;20057;-72
2021/01/28 08:36:52;;;;;;;11.63;6.17;;;2.20;93.30;;;;;;5011255;28;20030;-71
2021/01/28 08:39:29;;;;;;;13.13;7.57;;;2.30;93.40;;;;;;5011726;28;20042;-72
2021/01/28 08:42:16;;;;;;;11.47;6.37;;;2.50;93.50;;;;;;5013379;28;20030;-72
2021/01/28 08:44:44;;;;;;;13.73;6.57;;;2.70;93.40;;;;;;5011873;28;20394;-72
2021/01/28 08:47:21;;;;;;;11.30;6.60;;;2.90;93.30;;;;;;5014251;28;20128;-72
2021/01/28 08:50:14;;;;;;;11.93;6.17;;;3.00;93.10;;;;;;5009066;28;20042;-72
2021/01/28 08:52:40;;;;;;;10.40;5.87;;;3.20;93.00;;;;;;5005261;28;20398;-72
2021/01/28 08:55:34;;;;;;;10.67;5.40;;;3.30;93.00;;;;;;4995475;28;20514;-72
2021/01/28 08:58:24;;;;;;;11.80;5.60;;;3.60;92.90;;;;;;4971497;28;20406;-71
2021/01/28 09:00:57;;;;;;;9.73;5.23;;;3.70;92.50;;;;;;5012040;28;20049;-72
2021/01/28 09:03:29;;;;;;;9.97;5.53;;;3.80;92.20;;;;;;5028604;28;20172;-72
2021/01/28 09:05:59;;;;;;;9.47;5.67;;;3.90;92.80;;;;;;5014893;28;20038;-72
2021/01/28 09:08:37;;;;;;;9.73;5.15;;;4.20;92.70;;;;;;5033387;28;20041;-72
2021/01/28 09:11:20;;;;;;;8.57;4.93;;;4.30;91.90;;;;;;5033181;28;20034;-73
2021/01/28 09:14:06;;;;;;;9.27;5.10;;;4.30;91.90;;;;;;5033541;28;20033;-72
2021/01/28 09:16:34;;;;;;;9.60;5.27;;;4.30;91.70;;;;;;5032023;28;20037;-70
2021/01/28 09:19:17;;;;;;;10.50;5.33;;;4.30;91.60;;;;;;5032820;28;20563;-71
2021/01/28 09:21:45;;;;;;;9.60;5.47;;;4.20;91.20;;;;;;5032462;28;20128;-70
2021/01/28 09:24:17;;;;;;;10.27;5.13;;;4.10;91.30;;;;;;4999180;28;20034;-71
2021/01/28 09:26:44;;;;;;;9.70;5.17;;;4.00;91.30;;;;;;5033336;28;20083;-67
2021/01/28 09:29:16;;;;;;;10.10;4.60;;;4.00;91.60;;;;;;5033636;28;20562;-69
2021/01/28 09:31:43;;;;;;;10.17;5.33;;;4.00;91.00;;;;;;5030502;28;20041;-70
2021/01/28 09:34:25;;;;;;;8.67;4.90;;;4.00;91.00;;;;;;5013262;28;20121;-71
2021/01/28 09:37:01;;;;;;;9.37;5.20;;;4.00;90.90;;;;;;5003547;28;20062;-69
2021/01/28 09:39:49;;;;;;;8.70;4.93;;;4.00;91.10;;;;;;5000653;28;20041;-71
2021/01/28 09:42:31;;;;;;;9.63;4.93;;;4.20;91.30;;;;;;5003222;28;20046;-70
2021/01/28 09:45:24;;;;;;;9.57;4.93;;;4.40;91.20;;;;;;4993837;28;20049;-70
2021/01/28 09:47:56;;;;;;;10.83;4.80;;;4.50;90.80;;;;;;5003549;28;20090;-69
2021/01/28 09:50:24;;;;;;;8.80;4.70;;;4.60;90.60;;;;;;5011167;28;20030;-70
2021/01/28 09:52:51;;;;;;;8.83;5.30;;;4.60;90.30;;;;;;5011905;28;20045;-69
2021/01/28 09:55:20;;;;;;;8.43;4.73;;;4.50;89.60;;;;;;4989454;28;20045;-69
2021/01/28 09:57:46;;;;;;;9.80;4.67;;;4.30;88.70;;;;;;4995604;28;20417;-69
2021/01/28 10:00:15;;;;;;;8.27;4.60;;;4.20;88.30;;;;;;4994495;28;20046;-70
2021/01/28 10:02:51;;;;;;;9.03;4.70;;;4.10;88.70;;;;;;5009655;28;20034;-70
2021/01/28 10:05:21;;;;;;;8.37;4.33;;;4.00;88.70;;;;;;4990162;28;20497;-71
2021/01/28 10:07:47;;;;;;;10.05;4.38;;;4.00;88.70;;;;;;4995345;28;20062;-69
2021/01/28 10:10:20;;;;;;;25.87;17.40;;;4.00;89.10;;;;;;4989662;28;20402;-71
2021/01/28 10:12:46;;;;;;;12.43;7.47;;;4.10;89.20;;;;;;5011731;28;20034;-71
2021/01/28 10:15:13;;;;;;;9.13;3.70;;;4.20;89.30;;;;;;5012267;28;20030;-69
2021/01/28 10:17:39;;;;;;;10.37;3.73;;;4.30;88.60;;;;;;4994541;28;20042;-69
2021/01/28 10:20:06;;;;;;;8.57;3.57;;;4.30;88.40;;;;;;5011801;28;20040;-70
2021/01/28 10:22:36;;;;;;;7.40;3.40;;;4.40;88.20;;;;;;5011383;28;20034;-70
2021/01/28 10:25:03;;;;;;;7.80;3.70;;;4.50;88.00;;;;;;5012203;28;20108;-70
2021/01/28 10:27:29;;;;;;;7.60;3.20;;;4.70;88.70;;;;;;5011690;28;20034;-70
2021/01/28 10:29:55;;;;;;;8.03;4.03;;;4.90;87.90;;;;;;5011477;28;20034;-70
2021/01/28 10:32:21;;;;;;;8.33;3.10;;;5.10;88.20;;;;;;5012531;28;20445;-71
2021/01/28 10:34:47;;;;;;;7.50;3.27;;;5.30;87.20;;;;;;4994596;28;20042;-71
2021/01/28 10:37:13;;;;;;;7.93;3.03;;;5.40;86.90;;;;;;4995197;28;20060;-71
2021/01/28 10:39:39;;;;;;;7.67;3.47;;;5.50;86.30;;;;;;4995112;28;20554;-71
2021/01/28 10:42:06;;;;;;;5.87;3.03;;;5.60;85.40;;;;;;5011793;28;20057;-71
2021/01/28 10:44:32;;;;;;;6.40;2.90;;;5.60;84.50;;;;;;5011797;28;20117;-71
2021/01/28 10:46:58;;;;;;;9.17;2.93;;;5.50;83.20;;;;;;4994554;28;20571;-71
2021/01/28 10:49:24;;;;;;;7.20;3.10;;;5.40;83.30;;;;;;5012252;28;20038;-71
2021/01/28 10:51:50;;;;;;;7.10;3.10;;;5.40;83.90;;;;;;4994700;28;20040;-71
2021/01/28 10:54:17;;;;;;;5.50;2.37;;;5.40;83.60;;;;;;4993783;28;20512;-71
2021/01/28 10:56:43;;;;;;;7.13;2.57;;;5.40;83.30;;;;;;4994943;28;20045;-69
2021/01/28 10:59:09;;;;;;;6.83;2.67;;;5.30;82.40;;;;;;5011911;28;20037;-71
2021/01/28 11:01:35;;;;;;;8.67;2.87;;;5.20;80.60;;;;;;5010914;28;20038;-70
2021/01/28 11:04:01;;;;;;;7.13;2.90;;;4.90;80.20;;;;;;5011863;28;20045;-70
2021/01/28 11:06:27;;;;;;;7.53;2.93;;;4.70;80.60;;;;;;5011553;28;20092;-71
2021/01/28 11:08:52;;;;;;;8.17;3.40;;;4.70;81.00;;;;;;5011906;28;20046;-69
2021/01/28 11:11:18;;;;;;;6.83;3.23;;;4.60;80.40;;;;;;5010719;28;20037;-71
2021/01/28 11:13:47;;;;;;;7.57;3.17;;;4.50;80.40;;;;;;5002494;28;20070;-70
2021/01/28 11:16:13;;;;;;;7.97;3.17;;;4.50;80.80;;;;;;5010369;28;20053;-71
2021/01/28 11:18:38;;;;;;;9.03;3.50;;;4.40;80.20;;;;;;5011228;28;20492;-69
2021/01/28 11:21:05;;;;;;;6.83;3.23;;;4.30;80.10;;;;;;5011325;28;20042;-70
2021/01/28 11:23:31;;;;;;;8.10;3.60;;;4.20;80.60;;;;;;4994464;28;20044;-70
2021/01/28 11:25:56;;;;;;;7.10;3.07;;;4.20;80.40;;;;;;5011376;28;20030;-70
2021/01/28 11:28:22;;;;;;;7.73;3.43;;;4.20;80.90;;;;;;5011360;28;20407;-70
2021/01/28 11:30:48;;;;;;;7.27;3.23;;;4.30;81.20;;;;;;5010900;28;20040;-70
2021/01/28 11:33:14;;;;;;;6.77;3.10;;;4.40;80.60;;;;;;5011763;28;20493;-72
2021/01/28 11:35:40;;;;;;;7.47;3.33;;;4.40;80.30;;;;;;5011455;28;20042;-70
2021/01/28 11:38:08;;;;;;;6.80;3.00;;;4.40;80.00;;;;;;5011044;28;20044;-69
2021/01/28 11:40:35;;;;;;;7.63;3.07;;;4.40;80.30;;;;;;5011407;28;20038;-70
2021/01/28 11:43:04;;;;;;;7.00;3.10;;;4.40;80.30;;;;;;5008866;28;20042;-71
2021/01/28 11:45:33;;;;;;;7.77;3.07;;;4.50;79.90;;;;;;5019010;23;20040;-70
2021/01/28 11:47:59;;;;;;;7.27;2.77;;;4.50;80.30;;;;;;5070552;28;20492;-70
2021/01/28 11:50:26;;;;;;;8.27;3.57;;;4.60;79.90;;;;;;5053033;28;20043;-71
2021/01/28 11:52:52;;;;;;;8.57;3.43;;;4.60;80.10;;;;;;5053047;28;20040;-71
2021/01/28 11:55:20;;;;;;;6.00;2.70;;;4.70;79.70;;;;;;5058775;28;20036;-70
2021/01/28 11:57:46;;;;;;;8.53;3.40;;;4.70;79.20;;;;;;5053100;28;20040;-71
2021/01/28 12:00:14;;;;;;;7.13;3.27;;;4.80;78.80;;;;;;5070508;28;20032;-71
2021/01/28 12:02:40;;;;;;;6.93;2.97;;;4.70;78.60;;;;;;5070983;28;20481;-71
2021/01/28 12:05:09;;;;;;;6.50;3.03;;;4.80;78.90;;;;;;5071009;28;20039;-71
2021/01/28 12:07:36;;;;;;;7.60;3.50;;;4.80;78.70;;;;;;5070513;28;20044;-71
2021/01/28 12:10:04;;;;;;;8.07;3.70;;;4.90;79.60;;;;;;5070907;28;20059;-71
2021/01/28 12:12:30;;;;;;;7.70;3.30;;;4.90;79.00;;;;;;5052816;28;20515;-71
2021/01/28 12:14:56;;;;;;;7.43;3.50;;;5.10;79.30;;;;;;5069691;28;20068;-71
2021/01/28 12:17:22;;;;;;;7.70;3.30;;;5.20;79.30;;;;;;5069631;28;20473;-71
2021/01/28 12:19:48;;;;;;;7.77;3.30;;;5.30;79.10;;;;;;5069399;28;20037;-70
2021/01/28 12:22:15;;;;;;;8.73;3.30;;;5.40;78.50;;;;;;5070863;28;20039;-70
2021/01/28 12:24:40;;;;;;;8.10;3.00;;;5.40;77.70;;;;;;5069114;28;20138;-70
2021/01/28 12:27:06;;;;;;;6.93;3.13;;;5.40;77.80;;;;;;5069903;28;20116;-70
2021/01/28 12:29:32;;;;;;;8.73;2.87;;;5.50;77.50;;;;;;5069486;28;20090;-71
2021/01/28 12:31:58;;;;;;;7.47;2.93;;;5.50;77.50;;;;;;5068728;28;20086;-71
2021/01/28 12:34:26;;;;;;;6.80;2.90;;;5.40;77.00;;;;;;5070742;28;20119;-70
2021/01/28 12:36:55;;;;;;;6.83;3.20;;;5.40;77.20;;;;;;5068954;28;20043;-71
2021/01/28 12:39:21;;;;;;;7.43;2.80;;;5.50;77.50;;;;;;5069348;28;20561;-70
2021/01/28 12:41:47;;;;;;;8.03;2.70;;;5.50;76.00;;;;;;5052362;28;20496;-71
2021/01/28 12:44:13;;;;;;;7.70;3.00;;;5.50;77.00;;;;;;5038136;28;20045;-71
2021/01/28 12:46:39;;;;;;;8.23;2.57;;;5.60;76.90;;;;;;5018529;28;20527;-70
2021/01/28 12:49:05;;;;;;;8.60;2.80;;;5.80;77.60;;;;;;5052227;28;20449;-71
2021/01/28 12:51:31;;;;;;;9.67;2.73;;;6.10;77.50;;;;;;5047703;28;20072;-71
2021/01/28 12:53:57;;;;;;;6.17;2.70;;;6.30;76.80;;;;;;5066001;28;20099;-71
2021/01/28 12:56:23;;;;;;;6.50;2.90;;;6.50;75.90;;;;;;5050795;28;20044;-70
2021/01/28 12:58:49;;;;;;;5.40;2.40;;;6.60;74.90;;;;;;5069299;28;20033;-71
2021/01/28 13:01:14;;;;;;;8.27;2.23;;;6.70;74.40;;;;;;5070103;28;20468;-71
2021/01/28 13:03:40;;;;;;;3.87;1.57;;;6.80;73.70;;;;;;5070561;28;20123;-72
2021/01/28 13:06:06;;;;;;;6.03;2.03;;;6.70;73.00;;;;;;5069158;28;20128;-71
2021/01/28 13:08:32;;;;;;;6.63;2.17;;;6.80;73.30;;;;;;5053836;28;20036;-71
2021/01/28 13:10:57;;;;;;;6.37;1.87;;;6.90;72.80;;;;;;5073955;28;20028;-71
2021/01/28 13:13:23;;;;;;;6.93;2.07;;;7.00;71.70;;;;;;5039612;28;20053;-71
2021/01/28 13:15:49;;;;;;;7.80;1.87;;;7.10;71.30;;;;;;5072239;28;20119;-71
2021/01/28 13:18:15;;;;;;;8.97;2.20;;;7.10;70.00;;;;;;5056211;28;20037;-71
2021/01/28 13:20:41;;;;;;;8.67;2.20;;;7.30;71.50;;;;;;5071923;28;20082;-72
2021/01/28 13:23:07;;;;;;;6.70;1.87;;;7.80;72.40;;;;;;5056127;28;20036;-72
2021/01/28 13:25:33;;;;;;;5.93;1.90;;;8.40;72.90;;;;;;5072259;28;20033;-71
2021/01/28 13:27:59;;;;;;;7.17;2.07;;;8.70;69.30;;;;;;5073113;28;20063;-70
2021/01/28 13:30:26;;;;;;;7.87;2.00;;;8.60;66.50;;;;;;5072195;28;20085;-71
2021/01/28 13:32:53;;;;;;;6.93;1.70;;;8.60;67.20;;;;;;5071874;28;20048;-70
2021/01/28 13:35:25;;;;;;;5.20;1.60;;;8.40;66.40;;;;;;5072584;28;20457;-72